Time;durP1;ratioP1;P1;durP2;ratioP2;P2;SDS_P1;SDS_P2;PMS_P1;PMS_P2;Temp;Humidity;BMP_temperature;BMP_pressure;BME280_temperature;BME280_humidity;BME280_pressure;Samples;Min_cycle;Max_cycle;Signal;HPM_P1;HPM_P2
2023/12/21 00:02:19;;;;;;;0.93;0.93;;;7.70;99.90;;;;;;5033904;28;20238;-67
2023/12/21 00:04:46;;;;;;;1.38;1.27;;;7.70;99.90;;;;;;5033671;28;20206;-66
2023/12/21 00:07:12;;;;;;;1.00;0.90;;;7.70;99.90;;;;;;5033556;28;20194;-66
2023/12/21 00:09:39;;;;;;;1.48;1.20;;;7.70;99.90;;;;;;5034423;28;20206;-65
2023/12/21 00:12:06;;;;;;;1.27;1.17;;;7.70;99.90;;;;;;5034304;28;20611;-67
2023/12/21 00:14:34;;;;;;;2.65;1.10;;;7.70;99.90;;;;;;5035074;28;20198;-67
2023/12/21 00:17:01;;;;;;;1.40;1.25;;;7.80;99.90;;;;;;5035096;28;20229;-67
2023/12/21 00:19:28;;;;;;;1.40;1.30;;;7.80;99.90;;;;;;5033836;28;20209;-66
2023/12/21 00:21:54;;;;;;;1.20;1.10;;;7.80;99.90;;;;;;5033989;28;20222;-66
2023/12/21 00:24:21;;;;;;;1.58;1.15;;;7.80;99.90;;;;;;5033797;28;20206;-66
2023/12/21 00:26:48;;;;;;;2.10;1.15;;;7.80;99.90;;;;;;5033782;28;20208;-67
2023/12/21 00:29:15;;;;;;;1.23;1.13;;;7.80;99.90;;;;;;5036790;28;20202;-67
2023/12/21 00:31:43;;;;;;;1.55;1.00;;;7.80;99.90;;;;;;5037454;28;20226;-67
2023/12/21 00:34:10;;;;;;;1.10;1.00;;;7.80;99.90;;;;;;5037444;28;20206;-67
2023/12/21 00:36:36;;;;;;;1.20;1.00;;;7.90;99.90;;;;;;5037462;28;20202;-68
2023/12/21 00:39:03;;;;;;;0.88;0.82;;;7.90;99.90;;;;;;5037485;28;20225;-67
2023/12/21 00:41:30;;;;;;;1.65;0.90;;;7.80;99.90;;;;;;5037216;28;20783;-67
2023/12/21 00:43:57;;;;;;;1.10;1.00;;;7.90;99.90;;;;;;5037697;28;20254;-67
2023/12/21 00:46:24;;;;;;;1.00;0.90;;;7.90;99.90;;;;;;5037877;28;20206;-68
2023/12/21 00:48:52;;;;;;;1.23;0.80;;;7.90;99.90;;;;;;5037376;28;20202;-68
2023/12/21 00:51:19;;;;;;;1.50;0.75;;;7.90;99.90;;;;;;5037435;28;20226;-67
2023/12/21 00:53:45;;;;;;;1.20;0.90;;;7.90;99.90;;;;;;5037086;28;20202;-66
2023/12/21 00:56:12;;;;;;;1.30;0.73;;;7.90;99.90;;;;;;5037307;28;20199;-68
2023/12/21 00:58:39;;;;;;;3.08;0.80;;;7.90;99.90;;;;;;5036917;28;20219;-67
2023/12/21 01:01:06;;;;;;;0.60;0.60;;;7.90;99.90;;;;;;5037325;28;20222;-66
2023/12/21 01:03:32;;;;;;;1.05;0.80;;;7.90;99.90;;;;;;5037415;28;20194;-68
2023/12/21 01:06:00;;;;;;;1.00;0.63;;;7.90;99.90;;;;;;5037003;28;20198;-68
2023/12/21 01:08:27;;;;;;;0.77;0.73;;;7.90;99.90;;;;;;5036912;28;20202;-67
2023/12/21 01:10:54;;;;;;;0.70;0.50;;;7.90;99.90;;;;;;5037223;28;20203;-67
2023/12/21 01:13:21;;;;;;;0.60;0.60;;;8.00;99.90;;;;;;5037284;28;20213;-68
2023/12/21 01:15:47;;;;;;;0.80;0.80;;;7.90;99.90;;;;;;5037177;28;20257;-68
2023/12/21 01:18:14;;;;;;;0.70;0.60;;;7.90;99.90;;;;;;5038632;28;20218;-65
2023/12/21 01:20:41;;;;;;;1.02;0.60;;;8.00;99.90;;;;;;5039140;28;20206;-67
2023/12/21 01:23:09;;;;;;;0.60;0.50;;;8.00;99.90;;;;;;5037196;28;20226;-66
2023/12/21 01:25:36;;;;;;;0.73;0.50;;;8.00;99.90;;;;;;5036547;28;20703;-66
2023/12/21 01:28:03;;;;;;;0.50;0.50;;;8.00;99.90;;;;;;5036480;28;20207;-66
2023/12/21 01:30:29;;;;;;;0.65;0.65;;;8.00;99.90;;;;;;5036930;28;20207;-67
2023/12/21 01:32:56;;;;;;;0.60;0.50;;;8.00;99.90;;;;;;5036626;28;20222;-68
2023/12/21 01:35:23;;;;;;;0.68;0.68;;;8.00;99.90;;;;;;5036662;28;20202;-67
2023/12/21 01:37:50;;;;;;;0.77;0.73;;;8.00;99.90;;;;;;5036873;28;20222;-67
2023/12/21 01:40:18;;;;;;;0.98;0.88;;;8.00;99.90;;;;;;5037084;28;20206;-66
2023/12/21 01:42:44;;;;;;;0.68;0.55;;;8.00;99.90;;;;;;5037058;28;20223;-68
2023/12/21 01:45:12;;;;;;;0.50;0.40;;;8.00;99.90;;;;;;5036080;28;20206;-68
2023/12/21 01:47:39;;;;;;;0.63;0.60;;;8.00;99.90;;;;;;5036103;28;20277;-67
2023/12/21 01:50:07;;;;;;;0.80;0.60;;;8.00;99.90;;;;;;5036024;28;20558;-67
2023/12/21 01:52:35;;;;;;;0.52;0.50;;;8.00;99.90;;;;;;5036260;28;20231;-67
2023/12/21 01:55:03;;;;;;;0.70;0.60;;;8.00;99.90;;;;;;5036318;28;20221;-67
2023/12/21 01:57:31;;;;;;;0.80;0.70;;;8.00;99.90;;;;;;5035921;28;20222;-68
2023/12/21 01:59:58;;;;;;;1.60;0.70;;;8.00;99.90;;;;;;5036669;28;20202;-68
2023/12/21 02:02:24;;;;;;;0.90;0.80;;;8.00;99.90;;;;;;5035311;28;20745;-67
2023/12/21 02:04:52;;;;;;;1.33;0.68;;;8.00;99.90;;;;;;5035115;28;20217;-68
2023/12/21 02:07:19;;;;;;;2.45;0.80;;;8.00;99.90;;;;;;5035766;28;20645;-68
2023/12/21 02:09:46;;;;;;;0.77;0.75;;;8.00;99.90;;;;;;5035295;28;20553;-67
2023/12/21 02:12:12;;;;;;;0.70;0.70;;;8.00;99.90;;;;;;5035076;28;20226;-67
2023/12/21 02:14:41;;;;;;;0.98;0.80;;;8.00;99.90;;;;;;5035481;28;20206;-67
2023/12/21 02:17:13;;;;;;;0.80;0.80;;;8.10;99.90;;;;;;5035503;28;20206;-66
2023/12/21 02:19:40;;;;;;;1.60;0.80;;;8.00;99.90;;;;;;5035413;28;20191;-68
2023/12/21 02:22:08;;;;;;;0.80;0.70;;;8.00;99.90;;;;;;5035433;28;20248;-66
2023/12/21 02:24:37;;;;;;;1.67;0.68;;;8.00;99.90;;;;;;5036211;28;20202;-67
2023/12/21 02:27:04;;;;;;;0.95;0.90;;;8.10;99.90;;;;;;5037121;28;20198;-67
2023/12/21 02:29:31;;;;;;;1.15;1.00;;;8.10;99.90;;;;;;5037468;28;20209;-66
2023/12/21 02:31:58;;;;;;;1.50;0.75;;;8.00;99.90;;;;;;5035240;28;20253;-67
2023/12/21 02:34:25;;;;;;;0.80;0.70;;;8.10;99.90;;;;;;5035095;28;20206;-68
2023/12/21 02:36:52;;;;;;;1.00;0.90;;;8.00;99.90;;;;;;5036809;28;20207;-67
2023/12/21 02:39:19;;;;;;;0.85;0.75;;;8.00;99.90;;;;;;5036701;28;20313;-67
2023/12/21 02:41:48;;;;;;;0.98;0.80;;;8.00;99.90;;;;;;5035905;28;20235;-67
2023/12/21 02:44:15;;;;;;;1.40;0.75;;;8.10;99.90;;;;;;5035118;28;20198;-67
2023/12/21 02:46:42;;;;;;;0.93;0.70;;;8.00;99.90;;;;;;5035167;28;20594;-67
2023/12/21 02:49:08;;;;;;;0.50;0.50;;;8.10;99.90;;;;;;5035042;28;20206;-68
2023/12/21 02:51:35;;;;;;;0.98;0.70;;;8.10;99.90;;;;;;5033639;28;20598;-67
2023/12/21 02:54:02;;;;;;;0.82;0.68;;;8.00;99.90;;;;;;5034713;28;20594;-68
2023/12/21 02:56:28;;;;;;;0.73;0.65;;;8.10;99.90;;;;;;5034744;28;20516;-67
2023/12/21 02:58:57;;;;;;;0.80;0.60;;;8.10;99.90;;;;;;5034279;28;20301;-68
2023/12/21 03:01:23;;;;;;;0.80;0.70;;;8.10;99.90;;;;;;5034709;28;20230;-67
2023/12/21 03:03:50;;;;;;;0.70;0.60;;;8.00;99.90;;;;;;5034684;28;20198;-68
2023/12/21 03:06:17;;;;;;;0.70;0.60;;;8.00;99.90;;;;;;5034737;28;20203;-68
2023/12/21 03:08:44;;;;;;;0.95;0.85;;;8.00;99.90;;;;;;5034417;28;20198;-67
2023/12/21 03:11:10;;;;;;;0.98;0.60;;;8.00;99.90;;;;;;5037564;28;20233;-67
2023/12/21 03:13:37;;;;;;;0.68;0.68;;;8.10;99.90;;;;;;5045003;28;20205;-68
2023/12/21 03:16:07;;;;;;;0.60;0.60;;;8.00;99.90;;;;;;5048970;28;20213;-68
2023/12/21 03:18:33;;;;;;;0.60;0.60;;;8.10;99.90;;;;;;5045262;28;20583;-68
2023/12/21 03:21:00;;;;;;;0.60;0.50;;;8.10;99.90;;;;;;5045810;28;20293;-68
2023/12/21 03:23:28;;;;;;;0.60;0.60;;;8.10;99.90;;;;;;5046306;28;20213;-68
2023/12/21 03:25:54;;;;;;;1.08;0.55;;;8.10;99.90;;;;;;5046470;28;20206;-67
2023/12/21 03:28:21;;;;;;;1.00;0.80;;;8.10;99.90;;;;;;5050936;28;20203;-68
2023/12/21 03:30:48;;;;;;;0.73;0.73;;;8.10;99.90;;;;;;5049193;28;20265;-68
2023/12/21 03:33:16;;;;;;;0.70;0.70;;;8.10;99.90;;;;;;5049351;28;20207;-67
2023/12/21 03:35:43;;;;;;;1.15;0.70;;;8.10;99.90;;;;;;5049574;28;20204;-67
2023/12/21 03:38:10;;;;;;;0.65;0.60;;;8.10;99.90;;;;;;5050582;28;20214;-67
2023/12/21 03:40:36;;;;;;;0.60;0.60;;;8.10;99.90;;;;;;5044864;28;20266;-68
2023/12/21 03:43:03;;;;;;;0.90;0.90;;;8.10;99.90;;;;;;5048635;28;20726;-67
2023/12/21 03:45:30;;;;;;;0.80;0.80;;;8.10;99.90;;;;;;5047961;28;20208;-68
2023/12/21 03:47:57;;;;;;;0.70;0.70;;;8.10;99.90;;;;;;5047440;28;20209;-68
2023/12/21 03:50:25;;;;;;;0.50;0.40;;;8.10;99.90;;;;;;5049765;28;20202;-67
2023/12/21 03:52:52;;;;;;;0.75;0.75;;;8.10;99.90;;;;;;5051966;28;20285;-68
2023/12/21 03:55:18;;;;;;;0.70;0.70;;;8.10;99.90;;;;;;5050589;28;20203;-68
2023/12/21 03:57:45;;;;;;;0.70;0.65;;;8.20;99.90;;;;;;5048531;28;20202;-67
2023/12/21 04:00:13;;;;;;;0.93;0.63;;;8.10;99.90;;;;;;5050056;28;20205;-67
2023/12/21 04:02:39;;;;;;;0.85;0.77;;;8.10;99.90;;;;;;5050051;28;20230;-67
2023/12/21 04:05:07;;;;;;;0.50;0.50;;;8.20;99.90;;;;;;5047102;28;20738;-66
2023/12/21 04:07:35;;;;;;;0.65;0.65;;;8.20;99.90;;;;;;5047364;28;20198;-68
2023/12/21 04:12:48;;;;;;;0.82;0.82;;;8.20;99.90;;;;;;5092084;28;21001;-68
2023/12/21 04:15:16;;;;;;;0.95;0.80;;;8.20;99.90;;;;;;5091995;28;20204;-68
2023/12/21 04:17:43;;;;;;;2.28;0.70;;;8.20;99.90;;;;;;5092184;28;20281;-68
2023/12/21 04:20:11;;;;;;;2.80;1.00;;;8.30;99.90;;;;;;5091754;28;20201;-68
2023/12/21 04:22:38;;;;;;;0.80;0.80;;;8.30;99.90;;;;;;5091197;28;20216;-68
2023/12/21 04:25:05;;;;;;;1.35;1.13;;;8.30;99.90;;;;;;5100008;22;20240;-63
2023/12/21 04:27:32;;;;;;;1.17;1.00;;;8.30;99.90;;;;;;5070574;28;20668;-63
2023/12/21 04:30:00;;;;;;;0.80;0.75;;;8.40;99.90;;;;;;5070516;28;20265;-63
2023/12/21 04:32:27;;;;;;;0.95;0.82;;;8.40;99.90;;;;;;5070493;28;20233;-64
2023/12/21 04:34:54;;;;;;;1.25;1.10;;;8.40;99.90;;;;;;5069832;28;20358;-63
2023/12/21 04:37:20;;;;;;;1.02;0.95;;;8.40;99.90;;;;;;5069822;28;20208;-63
2023/12/21 04:39:47;;;;;;;1.15;1.05;;;8.40;99.90;;;;;;5070308;28;20572;-63
2023/12/21 04:42:14;;;;;;;1.15;1.05;;;8.40;99.90;;;;;;5069234;28;20667;-63
2023/12/21 04:44:41;;;;;;;5.68;1.70;;;8.40;99.90;;;;;;5069690;28;20570;-64
2023/12/21 04:47:10;;;;;;;2.25;1.30;;;8.40;99.90;;;;;;5069426;28;20625;-64
2023/12/21 04:49:37;;;;;;;1.10;1.00;;;8.40;99.90;;;;;;5069413;28;20201;-65
2023/12/21 04:52:04;;;;;;;1.23;0.93;;;8.40;99.90;;;;;;5069481;28;20221;-65
2023/12/21 04:54:31;;;;;;;0.98;0.90;;;8.40;99.90;;;;;;5069419;28;20221;-65
2023/12/21 04:56:58;;;;;;;1.20;1.08;;;8.40;99.90;;;;;;5069697;28;20197;-64
2023/12/21 04:59:25;;;;;;;1.30;1.20;;;8.40;99.90;;;;;;5069557;28;20201;-64
2023/12/21 05:01:52;;;;;;;3.05;1.02;;;8.40;99.90;;;;;;5101763;22;20226;-67
2023/12/21 05:04:20;;;;;;;0.80;0.80;;;8.40;99.90;;;;;;5091739;28;20700;-68
2023/12/21 05:06:47;;;;;;;0.80;0.73;;;8.40;99.90;;;;;;5089564;28;20204;-67
2023/12/21 05:09:14;;;;;;;0.93;0.80;;;8.40;99.90;;;;;;5089776;28;20196;-67
2023/12/21 05:11:40;;;;;;;0.70;0.60;;;8.40;99.90;;;;;;5089445;28;20220;-67
2023/12/21 05:14:07;;;;;;;1.00;0.90;;;8.50;99.90;;;;;;5089541;28;20250;-67
2023/12/21 05:16:34;;;;;;;0.80;0.80;;;8.50;99.90;;;;;;5089425;28;20204;-68
2023/12/21 05:19:00;;;;;;;0.70;0.70;;;8.50;99.90;;;;;;5089880;28;20207;-68
2023/12/21 05:21:29;;;;;;;0.95;0.80;;;8.60;99.90;;;;;;5089390;28;20311;-68
2023/12/21 05:23:55;;;;;;;0.70;0.70;;;8.60;99.90;;;;;;5077203;28;20201;-66
2023/12/21 05:26:22;;;;;;;2.65;0.90;;;8.60;99.90;;;;;;5076547;28;20643;-67
2023/12/21 05:28:49;;;;;;;0.65;0.65;;;8.60;99.90;;;;;;5075450;28;20209;-67
2023/12/21 05:31:23;;;;;;;0.75;0.70;;;8.60;99.90;;;;;;5075697;28;20224;-67
2023/12/21 05:33:49;;;;;;;0.82;0.68;;;8.60;99.90;;;;;;5075809;28;20562;-68
2023/12/21 05:36:20;;;;;;;1.30;0.90;;;8.60;99.90;;;;;;5075536;28;20666;-68
2023/12/21 05:38:49;;;;;;;2.25;0.82;;;8.70;99.90;;;;;;5075558;28;20182;-68
2023/12/21 05:41:15;;;;;;;0.55;0.55;;;8.60;99.90;;;;;;5075223;28;20228;-67
2023/12/21 05:43:43;;;;;;;0.65;0.65;;;8.70;99.90;;;;;;5075722;28;20196;-66
2023/12/21 05:46:09;;;;;;;1.13;0.90;;;8.70;99.90;;;;;;5075596;28;20207;-66
2023/12/21 05:48:37;;;;;;;0.68;0.68;;;8.60;99.90;;;;;;5075589;28;20212;-66
2023/12/21 05:51:04;;;;;;;1.00;0.60;;;8.60;99.90;;;;;;5075112;28;20578;-66
2023/12/21 05:53:32;;;;;;;0.60;0.60;;;8.60;99.90;;;;;;5075391;28;20197;-68
2023/12/21 05:56:01;;;;;;;0.77;0.77;;;8.60;99.90;;;;;;5075207;28;20679;-67
2023/12/21 05:58:28;;;;;;;0.75;0.70;;;8.60;99.90;;;;;;5075424;28;20201;-65
2023/12/21 06:00:55;;;;;;;0.60;0.60;;;8.60;99.90;;;;;;5075343;28;20197;-66
2023/12/21 06:03:22;;;;;;;1.10;0.60;;;8.60;99.90;;;;;;5075387;28;20185;-66
2023/12/21 06:05:49;;;;;;;0.63;0.63;;;8.50;99.90;;;;;;5075111;28;20590;-66
2023/12/21 06:08:16;;;;;;;0.65;0.57;;;8.50;99.90;;;;;;5075125;28;20200;-66
2023/12/21 06:10:42;;;;;;;0.60;0.60;;;8.60;99.90;;;;;;5075170;28;20201;-65
2023/12/21 06:13:10;;;;;;;0.70;0.65;;;8.50;99.90;;;;;;5075019;28;20231;-69
2023/12/21 06:15:37;;;;;;;2.20;1.15;;;8.60;99.90;;;;;;5074917;28;20208;-67
2023/12/21 06:18:05;;;;;;;0.95;0.63;;;8.50;99.90;;;;;;5075157;28;20212;-66
2023/12/21 06:20:35;;;;;;;0.70;0.70;;;8.60;99.90;;;;;;5075959;28;20201;-68
2023/12/21 06:23:01;;;;;;;0.63;0.55;;;8.60;99.90;;;;;;5074980;28;20308;-66
2023/12/21 06:25:28;;;;;;;2.55;0.90;;;8.50;99.90;;;;;;5075209;28;20249;-67
2023/12/21 06:27:55;;;;;;;0.80;0.70;;;8.60;99.90;;;;;;5074682;28;20204;-67
2023/12/21 06:30:23;;;;;;;1.15;1.05;;;8.50;99.90;;;;;;5075001;28;20569;-65
2023/12/21 06:32:50;;;;;;;4.45;1.02;;;8.60;99.90;;;;;;5074084;28;20589;-67
2023/12/21 06:35:17;;;;;;;1.15;0.68;;;8.50;99.90;;;;;;5073640;28;20201;-67
2023/12/21 06:37:45;;;;;;;0.70;0.70;;;8.60;99.90;;;;;;5075101;28;20663;-66
2023/12/21 06:40:12;;;;;;;1.50;0.95;;;8.60;99.90;;;;;;5074287;28;20254;-64
2023/12/21 06:42:39;;;;;;;1.50;0.90;;;8.60;99.90;;;;;;5074032;28;20775;-66
2023/12/21 06:45:07;;;;;;;1.52;0.88;;;8.50;99.90;;;;;;5074362;28;20597;-66
2023/12/21 06:47:35;;;;;;;1.23;0.60;;;8.60;99.90;;;;;;5074239;28;20201;-65
2023/12/21 06:50:02;;;;;;;0.90;0.80;;;8.50;99.90;;;;;;5074480;28;20201;-66
2023/12/21 06:52:30;;;;;;;0.85;0.70;;;8.50;99.90;;;;;;5073994;28;20224;-67
2023/12/21 06:54:57;;;;;;;0.70;0.70;;;8.50;99.90;;;;;;5074334;28;20197;-67
2023/12/21 06:57:24;;;;;;;1.17;1.08;;;8.50;99.90;;;;;;5074127;28;20235;-67
2023/12/21 06:59:50;;;;;;;0.90;0.70;;;8.50;99.90;;;;;;5074780;28;20200;-66
2023/12/21 07:02:17;;;;;;;1.45;1.02;;;8.50;99.90;;;;;;5074016;28;20229;-67
2023/12/21 07:04:45;;;;;;;1.27;0.80;;;8.50;99.90;;;;;;5073771;28;20197;-67
2023/12/21 07:07:12;;;;;;;1.15;1.00;;;8.50;99.90;;;;;;5074602;28;20574;-68
2023/12/21 07:09:39;;;;;;;0.90;0.90;;;8.50;99.90;;;;;;5073990;28;20621;-66
2023/12/21 07:12:06;;;;;;;1.55;1.00;;;8.50;99.90;;;;;;5074093;28;20588;-66
2023/12/21 07:14:33;;;;;;;0.82;0.82;;;8.50;99.90;;;;;;5073812;28;20223;-67
2023/12/21 07:16:59;;;;;;;0.88;0.88;;;8.50;99.90;;;;;;5073902;28;20205;-67
2023/12/21 07:19:26;;;;;;;0.65;0.65;;;8.50;99.90;;;;;;5074250;28;20212;-68
2023/12/21 07:21:54;;;;;;;2.45;1.80;;;8.50;99.90;;;;;;5074296;28;20216;-67
2023/12/21 07:24:21;;;;;;;0.80;0.80;;;8.50;99.90;;;;;;5074296;28;20197;-67
2023/12/21 07:26:48;;;;;;;0.73;0.63;;;8.60;99.90;;;;;;5073902;28;20200;-68
2023/12/21 07:29:14;;;;;;;0.70;0.70;;;8.60;99.90;;;;;;5073490;28;20227;-66
2023/12/21 07:31:41;;;;;;;0.68;0.68;;;8.60;99.90;;;;;;5073377;28;20236;-65
2023/12/21 07:34:09;;;;;;;0.70;0.70;;;8.60;99.90;;;;;;5073621;28;20201;-67
2023/12/21 07:36:35;;;;;;;0.63;0.60;;;8.70;99.90;;;;;;5073626;28;20216;-67
2023/12/21 07:39:04;;;;;;;1.08;0.68;;;8.70;99.90;;;;;;5073720;28;20582;-67
2023/12/21 07:41:31;;;;;;;0.70;0.70;;;8.70;99.90;;;;;;5073409;28;20224;-67
2023/12/21 07:43:58;;;;;;;0.80;0.80;;;8.70;99.90;;;;;;5073741;28;20208;-67
2023/12/21 07:46:25;;;;;;;1.05;0.95;;;8.70;99.90;;;;;;5073232;28;20201;-67
2023/12/21 07:48:52;;;;;;;0.95;0.80;;;8.70;99.90;;;;;;5073081;28;20666;-66
2023/12/21 07:51:19;;;;;;;0.95;0.85;;;8.80;99.90;;;;;;5073524;28;20253;-66
2023/12/21 07:53:45;;;;;;;1.05;0.95;;;8.80;99.90;;;;;;5073325;28;20235;-67
2023/12/21 07:56:14;;;;;;;1.23;0.80;;;8.80;99.90;;;;;;5073239;28;20201;-66
2023/12/21 07:58:40;;;;;;;1.35;0.75;;;8.80;99.90;;;;;;5073016;28;20594;-66
2023/12/21 08:01:07;;;;;;;1.05;0.95;;;8.80;99.90;;;;;;5072788;28;20581;-65
2023/12/21 08:03:34;;;;;;;1.20;0.98;;;8.80;99.90;;;;;;5073714;28;20186;-67
2023/12/21 08:06:01;;;;;;;0.90;0.90;;;8.70;99.90;;;;;;5073145;28;20589;-67
2023/12/21 08:08:27;;;;;;;1.05;0.95;;;8.80;99.90;;;;;;5072654;28;20597;-67
2023/12/21 08:10:54;;;;;;;1.15;1.05;;;8.70;99.90;;;;;;5072896;28;20661;-67
2023/12/21 08:13:22;;;;;;;1.10;0.88;;;8.80;99.90;;;;;;5073534;28;20216;-67
2023/12/21 08:15:49;;;;;;;2.15;1.35;;;8.80;99.90;;;;;;5073065;28;20209;-66
2023/12/21 08:18:16;;;;;;;1.30;1.20;;;8.80;99.90;;;;;;5073198;28;20295;-67
2023/12/21 08:20:47;;;;;;;1.15;1.05;;;8.80;99.90;;;;;;5073400;28;20307;-66
2023/12/21 08:23:14;;;;;;;2.55;1.10;;;8.80;99.90;;;;;;5073781;28;20181;-66
2023/12/21 08:25:40;;;;;;;1.08;0.90;;;8.90;99.90;;;;;;5074339;28;20212;-65
2023/12/21 08:28:07;;;;;;;1.73;0.85;;;8.90;99.90;;;;;;5072609;28;20205;-66
2023/12/21 08:30:35;;;;;;;0.73;0.73;;;8.80;99.90;;;;;;5073233;28;20227;-66
2023/12/21 08:33:02;;;;;;;1.25;0.73;;;8.80;99.90;;;;;;5073023;28;20585;-67
2023/12/21 08:35:29;;;;;;;0.80;0.80;;;8.80;99.90;;;;;;5072606;28;20678;-67
2023/12/21 08:37:59;;;;;;;0.90;0.85;;;8.80;99.90;;;;;;5072592;28;20208;-67
2023/12/21 08:40:25;;;;;;;0.70;0.70;;;8.80;99.90;;;;;;5073164;28;20201;-66
2023/12/21 08:42:52;;;;;;;1.50;0.70;;;8.80;99.90;;;;;;5073158;28;20221;-66
2023/12/21 08:45:19;;;;;;;1.00;0.90;;;8.80;99.90;;;;;;5072621;28;20211;-66
2023/12/21 08:47:47;;;;;;;1.40;1.30;;;8.80;99.90;;;;;;5072465;28;20211;-67
2023/12/21 08:50:14;;;;;;;0.80;0.63;;;8.70;99.90;;;;;;5072472;28;20667;-67
2023/12/21 08:52:41;;;;;;;1.20;1.10;;;8.80;99.90;;;;;;5072558;28;20236;-68
2023/12/21 08:55:09;;;;;;;1.65;0.70;;;8.70;99.90;;;;;;5072748;28;20205;-66
2023/12/21 08:57:36;;;;;;;0.80;0.80;;;8.70;99.90;;;;;;5073788;28;20205;-65
2023/12/21 09:00:05;;;;;;;1.17;0.90;;;8.70;99.90;;;;;;5076344;28;20201;-68
2023/12/21 09:02:33;;;;;;;1.05;0.82;;;8.70;99.90;;;;;;5075807;28;20221;-66
2023/12/21 09:05:02;;;;;;;1.33;1.05;;;8.70;99.90;;;;;;5076891;28;20200;-66
2023/12/21 09:07:28;;;;;;;2.30;1.00;;;8.70;99.90;;;;;;5076810;28;20227;-66
2023/12/21 09:09:55;;;;;;;1.00;0.90;;;8.70;99.90;;;;;;5076299;28;20546;-68
2023/12/21 09:12:22;;;;;;;1.00;0.90;;;8.70;99.90;;;;;;5076893;28;20232;-67
2023/12/21 09:14:49;;;;;;;1.30;0.98;;;8.80;99.90;;;;;;5076171;28;20205;-66
2023/12/21 09:17:16;;;;;;;1.30;0.85;;;8.80;99.90;;;;;;5076183;28;20208;-67
2023/12/21 09:19:44;;;;;;;1.55;0.90;;;8.80;99.90;;;;;;5077118;28;20229;-66
2023/12/21 09:22:12;;;;;;;1.52;0.80;;;8.80;99.90;;;;;;5079152;28;20217;-67
2023/12/21 09:24:39;;;;;;;0.82;0.63;;;8.80;99.90;;;;;;5077558;28;20197;-66
2023/12/21 09:27:06;;;;;;;1.75;0.80;;;8.80;99.90;;;;;;5075922;28;20205;-66
2023/12/21 09:29:33;;;;;;;0.88;0.80;;;8.80;99.90;;;;;;5076144;28;20212;-66
2023/12/21 09:32:00;;;;;;;0.70;0.70;;;8.80;99.90;;;;;;5075724;28;20247;-67
2023/12/21 09:34:27;;;;;;;1.27;0.80;;;8.90;99.90;;;;;;5075510;28;20208;-66
2023/12/21 09:36:54;;;;;;;0.55;0.50;;;8.90;99.90;;;;;;5075487;28;20716;-67
2023/12/21 09:39:22;;;;;;;1.05;0.57;;;8.90;99.90;;;;;;5076240;28;20197;-67
2023/12/21 09:41:50;;;;;;;1.05;0.80;;;8.90;99.90;;;;;;5075899;28;20691;-68
2023/12/21 09:44:17;;;;;;;1.02;0.60;;;8.90;99.90;;;;;;5075866;28;20200;-65
2023/12/21 09:46:45;;;;;;;1.25;0.68;;;9.00;99.90;;;;;;5076104;28;20568;-67
2023/12/21 09:49:14;;;;;;;2.25;0.80;;;9.00;99.90;;;;;;5075772;28;20205;-66
2023/12/21 09:51:41;;;;;;;0.70;0.70;;;9.00;99.90;;;;;;5075798;28;20298;-67
2023/12/21 09:54:09;;;;;;;1.50;0.90;;;9.00;99.90;;;;;;5075470;28;20592;-67
2023/12/21 09:56:37;;;;;;;0.98;0.88;;;9.00;99.90;;;;;;5075846;28;20204;-68
2023/12/21 09:59:05;;;;;;;0.60;0.60;;;9.10;99.90;;;;;;5075210;28;20579;-66
2023/12/21 10:01:32;;;;;;;0.90;0.70;;;9.10;99.90;;;;;;5075438;28;20332;-68
2023/12/21 10:03:59;;;;;;;1.40;0.80;;;9.10;99.90;;;;;;5075409;28;20200;-67
2023/12/21 10:06:26;;;;;;;0.75;0.75;;;9.10;99.90;;;;;;5076057;28;20205;-68
2023/12/21 10:08:54;;;;;;;1.08;0.77;;;9.10;99.90;;;;;;5075465;28;20272;-67
2023/12/21 10:11:20;;;;;;;1.98;0.90;;;9.10;99.90;;;;;;5075256;28;20274;-66
2023/12/21 10:13:49;;;;;;;0.98;0.88;;;9.10;99.90;;;;;;5075176;28;20702;-68
2023/12/21 10:16:16;;;;;;;0.80;0.65;;;9.20;99.90;;;;;;5075076;28;20201;-67
2023/12/21 10:18:43;;;;;;;1.02;0.60;;;9.10;99.90;;;;;;5075141;28;20197;-66
2023/12/21 10:21:10;;;;;;;1.38;0.90;;;9.10;99.90;;;;;;5075156;28;20733;-67
2023/12/21 10:23:39;;;;;;;2.67;0.70;;;9.20;99.90;;;;;;5075057;28;20204;-67
2023/12/21 10:26:06;;;;;;;1.73;0.80;;;9.10;99.90;;;;;;5075275;28;20201;-67
2023/12/21 10:28:33;;;;;;;0.77;0.70;;;9.20;99.90;;;;;;5074919;28;20219;-66
2023/12/21 10:31:03;;;;;;;1.15;0.75;;;9.20;99.90;;;;;;5075545;28;20212;-66
2023/12/21 10:33:30;;;;;;;1.02;0.93;;;9.20;99.90;;;;;;5074586;28;20695;-66
2023/12/21 10:35:58;;;;;;;1.40;0.75;;;9.20;99.90;;;;;;5075002;28;20273;-66
2023/12/21 10:38:25;;;;;;;0.70;0.63;;;9.20;99.90;;;;;;5077353;28;20201;-67
2023/12/21 10:40:52;;;;;;;0.50;0.50;;;9.10;99.90;;;;;;5087318;28;20218;-67
2023/12/21 10:43:19;;;;;;;0.80;0.70;;;9.10;99.90;;;;;;5084079;28;20573;-66
2023/12/21 10:45:48;;;;;;;0.98;0.70;;;9.20;99.90;;;;;;5074905;28;20197;-67
2023/12/21 10:48:19;;;;;;;0.90;0.60;;;9.20;99.90;;;;;;5075480;28;20202;-67
2023/12/21 10:50:47;;;;;;;1.13;0.80;;;9.20;99.90;;;;;;5075804;28;20189;-68
2023/12/21 10:53:14;;;;;;;0.57;0.47;;;9.20;99.90;;;;;;5074802;28;20240;-66
2023/12/21 10:55:42;;;;;;;0.60;0.60;;;9.20;99.90;;;;;;5074758;28;20262;-67
2023/12/21 10:58:09;;;;;;;1.02;0.70;;;9.20;99.90;;;;;;5074241;28;20683;-68
2023/12/21 11:00:36;;;;;;;0.88;0.63;;;9.20;99.90;;;;;;5074478;28;20558;-67
2023/12/21 11:03:06;;;;;;;1.17;0.65;;;9.30;99.90;;;;;;5073846;28;20602;-68
2023/12/21 11:05:35;;;;;;;0.93;0.70;;;9.20;99.90;;;;;;5074779;28;20201;-67
2023/12/21 11:08:03;;;;;;;0.93;0.75;;;9.20;99.90;;;;;;5074602;28;20308;-68
2023/12/21 11:10:32;;;;;;;0.60;0.57;;;9.20;99.90;;;;;;5074379;28;20203;-67
2023/12/21 11:12:59;;;;;;;0.93;0.50;;;9.20;99.90;;;;;;5073807;28;20217;-65
2023/12/21 11:15:26;;;;;;;1.05;0.60;;;9.20;99.90;;;;;;5074600;28;20197;-67
2023/12/21 11:17:55;;;;;;;1.00;0.90;;;9.30;99.90;;;;;;5078912;28;20205;-68
2023/12/21 11:20:25;;;;;;;1.00;0.55;;;9.30;99.90;;;;;;5079012;28;20212;-67
2023/12/21 11:22:54;;;;;;;1.63;0.70;;;9.30;99.90;;;;;;5082276;28;20396;-67
2023/12/21 11:25:22;;;;;;;1.20;1.10;;;9.30;99.90;;;;;;5083001;28;20264;-68
2023/12/21 11:27:50;;;;;;;0.60;0.55;;;9.30;99.90;;;;;;5082575;28;20227;-68
2023/12/21 11:30:18;;;;;;;1.00;0.90;;;9.30;99.90;;;;;;5074523;28;20197;-68
2023/12/21 11:32:47;;;;;;;0.90;0.60;;;9.30;99.90;;;;;;5073842;28;20275;-67
2023/12/21 11:35:19;;;;;;;1.00;0.90;;;9.30;99.90;;;;;;5073403;28;20201;-68
2023/12/21 11:37:49;;;;;;;0.70;0.70;;;9.40;99.90;;;;;;5073158;28;20612;-68
2023/12/21 11:40:20;;;;;;;0.70;0.47;;;9.40;99.90;;;;;;5073126;28;20215;-68
2023/12/21 11:42:49;;;;;;;0.60;0.40;;;9.40;99.90;;;;;;5073181;28;20229;-68
2023/12/21 11:45:24;;;;;;;0.70;0.50;;;9.40;99.90;;;;;;5073216;28;20200;-68
2023/12/21 11:47:51;;;;;;;0.50;0.47;;;9.40;99.90;;;;;;5073375;28;20544;-68
2023/12/21 11:50:20;;;;;;;1.65;0.60;;;9.40;99.90;;;;;;5073556;28;20197;-68
2023/12/21 11:52:48;;;;;;;1.05;0.70;;;9.40;99.90;;;;;;5073413;28;20220;-68
2023/12/21 11:55:26;;;;;;;1.63;0.60;;;9.40;99.90;;;;;;5074079;28;20204;-69
2023/12/21 11:58:07;;;;;;;0.60;0.60;;;9.40;99.90;;;;;;5073966;28;20217;-68
2023/12/21 12:00:35;;;;;;;0.70;0.70;;;9.40;99.90;;;;;;5074167;28;20185;-69
2023/12/21 12:03:02;;;;;;;1.10;0.60;;;9.40;99.90;;;;;;5073026;28;20722;-68
2023/12/21 12:05:30;;;;;;;0.70;0.70;;;9.40;99.90;;;;;;5073385;28;20201;-68
2023/12/21 12:07:56;;;;;;;0.80;0.60;;;9.40;99.90;;;;;;5073090;28;20202;-67
2023/12/21 12:10:24;;;;;;;0.63;0.50;;;9.40;99.90;;;;;;5073000;28;20582;-69
2023/12/21 12:12:52;;;;;;;0.70;0.70;;;9.40;99.90;;;;;;5072508;28;20247;-68
2023/12/21 12:15:20;;;;;;;0.95;0.60;;;9.40;99.90;;;;;;5073726;28;20282;-68
2023/12/21 12:17:46;;;;;;;0.75;0.75;;;9.40;99.90;;;;;;5074124;28;20259;-69
2023/12/21 12:20:14;;;;;;;1.70;1.02;;;9.50;99.90;;;;;;5073336;28;20212;-69
2023/12/21 12:22:40;;;;;;;0.98;0.80;;;9.50;99.90;;;;;;5073908;28;20225;-68
2023/12/21 12:25:08;;;;;;;1.67;0.70;;;9.60;99.90;;;;;;5073940;28;20519;-68
2023/12/21 12:27:36;;;;;;;0.90;0.65;;;9.60;99.90;;;;;;5074716;28;20601;-68
2023/12/21 12:30:04;;;;;;;0.80;0.70;;;9.60;99.90;;;;;;5075500;28;20207;-68
2023/12/21 12:32:31;;;;;;;0.98;0.80;;;9.60;99.90;;;;;;5075572;28;20225;-68
2023/12/21 12:34:58;;;;;;;0.57;0.57;;;9.60;99.90;;;;;;5078942;28;20232;-69
2023/12/21 12:37:24;;;;;;;0.50;0.50;;;9.60;99.90;;;;;;5079914;28;20197;-68
2023/12/21 12:39:52;;;;;;;0.70;0.70;;;9.60;99.90;;;;;;5079439;28;20201;-69
2023/12/21 12:42:19;;;;;;;1.00;0.90;;;9.70;99.90;;;;;;5080061;28;20223;-67
2023/12/21 12:44:50;;;;;;;1.25;0.60;;;9.70;99.90;;;;;;5080203;28;20200;-69
2023/12/21 12:47:17;;;;;;;2.22;0.85;;;9.70;99.90;;;;;;5078877;28;20648;-67
2023/12/21 12:49:44;;;;;;;1.40;0.82;;;9.70;99.90;;;;;;5079292;28;20212;-69
2023/12/21 12:52:16;;;;;;;1.23;0.93;;;9.70;99.90;;;;;;5080191;28;20228;-67
2023/12/21 12:54:43;;;;;;;3.05;1.00;;;9.70;99.90;;;;;;5078438;28;20262;-67
2023/12/21 12:57:11;;;;;;;1.05;0.77;;;9.70;99.90;;;;;;5078840;28;20197;-68
2023/12/21 12:59:38;;;;;;;1.40;0.93;;;9.80;99.90;;;;;;5080074;28;20201;-67
2023/12/21 13:02:06;;;;;;;2.40;0.70;;;9.80;99.90;;;;;;5078678;28;20228;-68